createdAt,value
2023-04-23T00:01:43.669Z,5.68
2023-04-23T00:04:10.481Z,5.68
2023-04-23T00:06:37.307Z,4.57
2023-04-23T00:09:04.233Z,5.03
2023-04-23T00:11:31.166Z,5.38
2023-04-23T00:13:58.004Z,4.68
2023-04-23T00:16:25.203Z,5.18
2023-04-23T00:18:51.962Z,4.75
2023-04-23T00:21:18.659Z,5.82
2023-04-23T00:23:45.461Z,4.57
2023-04-23T00:26:12.153Z,4.43
2023-04-23T00:28:38.846Z,4.30
2023-04-23T00:31:05.747Z,4.85
2023-04-23T00:33:32.339Z,4.60
2023-04-23T00:35:59.073Z,4.47
2023-04-23T00:38:26.647Z,4.70
2023-04-23T00:40:53.324Z,4.47
2023-04-23T00:43:20.667Z,4.10
2023-04-23T00:45:47.892Z,4.13
2023-04-23T00:48:14.645Z,4.32
2023-04-23T00:50:42.032Z,4.22
2023-04-23T00:53:08.900Z,3.92
2023-04-23T00:55:35.591Z,4.47
2023-04-23T00:58:02.296Z,4.90
2023-04-23T01:00:29.085Z,4.13
2023-04-23T01:02:55.821Z,4.50
2023-04-23T01:05:22.681Z,3.90
2023-04-23T01:07:49.249Z,5.07
2023-04-23T01:10:16.925Z,4.65
2023-04-23T01:12:43.600Z,3.95
2023-04-23T01:15:10.753Z,5.00
2023-04-23T01:17:38.548Z,3.78
2023-04-23T01:20:06.748Z,4.22
2023-04-23T01:22:37.754Z,3.70
2023-04-23T01:25:04.773Z,4.65
2023-04-23T01:27:32.223Z,3.80
2023-04-23T01:29:59.019Z,3.85
2023-04-23T01:32:25.890Z,3.78
2023-04-23T01:34:54.106Z,3.38
2023-04-23T01:37:21.245Z,5.85
2023-04-23T01:39:47.830Z,4.47
2023-04-23T01:42:14.560Z,4.13
2023-04-23T01:44:41.680Z,3.83
2023-04-23T01:47:08.539Z,4.75
2023-04-23T01:49:35.093Z,5.97
2023-04-23T01:52:01.807Z,4.75
2023-04-23T01:54:28.519Z,3.78
2023-04-23T01:56:55.907Z,4.05
2023-04-23T01:59:22.928Z,3.80
2023-04-23T02:01:49.788Z,4.10
2023-04-23T02:04:17.098Z,4.97
2023-04-23T02:06:47.173Z,4.43
2023-04-23T02:09:14.014Z,4.97
2023-04-23T02:11:40.656Z,4.90
2023-04-23T02:14:08.013Z,4.55
2023-04-23T02:16:35.640Z,4.97
2023-04-23T02:19:02.275Z,5.50
2023-04-23T02:21:29.768Z,5.95
2023-04-23T02:23:56.344Z,6.10
2023-04-23T02:26:23.740Z,5.85
2023-04-23T02:28:50.988Z,6.18
2023-04-23T02:31:17.964Z,6.53
2023-04-23T02:33:44.905Z,6.22
2023-04-23T02:36:12.319Z,6.78
2023-04-23T02:38:42.387Z,6.10
2023-04-23T02:41:09.249Z,5.47
2023-04-23T02:43:35.869Z,6.03
2023-04-23T02:46:08.522Z,5.30
2023-04-23T02:48:39.731Z,6.22
2023-04-23T02:51:07.295Z,5.07
2023-04-23T02:53:33.957Z,6.53
2023-04-23T02:56:01.608Z,6.00
2023-04-23T02:58:28.409Z,6.07
2023-04-23T03:00:55.170Z,6.40
2023-04-23T03:03:22.217Z,5.97
2023-04-23T03:05:48.948Z,6.22
2023-04-23T03:08:15.657Z,5.55
2023-04-23T03:10:42.349Z,5.88
2023-04-23T03:13:08.957Z,5.00
2023-04-23T03:15:36.002Z,5.18
2023-04-23T03:18:04.490Z,6.15
2023-04-23T03:20:31.289Z,7.25
2023-04-23T03:22:58.227Z,11.45
2023-04-23T03:25:25.831Z,13.18
2023-04-23T03:27:53.084Z,11.25
2023-04-23T03:30:19.965Z,7.10
2023-04-23T03:32:46.669Z,6.78
2023-04-23T03:35:13.344Z,6.38
2023-04-23T03:37:40.008Z,6.80
2023-04-23T03:40:07.905Z,6.63
2023-04-23T03:42:34.738Z,7.07
2023-04-23T03:45:01.484Z,8.05
2023-04-23T03:47:28.250Z,7.15
2023-04-23T03:49:55.030Z,6.85
2023-04-23T03:52:21.734Z,6.35
2023-04-23T03:54:48.362Z,6.60
2023-04-23T03:57:15.092Z,7.75
2023-04-23T03:59:41.757Z,7.75
2023-04-23T04:02:08.506Z,8.40
2023-04-23T04:04:36.700Z,7.38
2023-04-23T04:07:03.627Z,7.78
2023-04-23T04:09:30.390Z,8.45
2023-04-23T04:11:57.018Z,9.88
2023-04-23T04:14:23.636Z,10.43
2023-04-23T04:16:50.795Z,10.30
2023-04-23T04:19:17.578Z,11.32
2023-04-23T04:21:44.241Z,10.40
2023-04-23T04:24:11.643Z,11.07
2023-04-23T04:26:38.383Z,9.95
2023-04-23T04:29:05.101Z,9.55
2023-04-23T04:31:32.422Z,8.60
2023-04-23T04:33:59.219Z,8.90
2023-04-23T04:36:27.259Z,8.98
2023-04-23T04:38:56.168Z,9.52
2023-04-23T04:41:25.498Z,21.25
2023-04-23T04:43:52.358Z,41.92
2023-04-23T04:46:20.846Z,29.15
2023-04-23T04:48:50.466Z,27.98
2023-04-23T04:51:17.126Z,24.77
2023-04-23T04:53:43.716Z,17.85
2023-04-23T04:56:10.388Z,18.08
2023-04-23T04:58:37.025Z,18.65
2023-04-23T05:01:03.995Z,19.25
2023-04-23T05:03:30.915Z,14.75
2023-04-23T05:05:58.956Z,14.95
2023-04-23T05:08:25.698Z,13.57
2023-04-23T05:10:54.043Z,11.32
2023-04-23T05:13:20.846Z,12.13
2023-04-23T05:15:47.442Z,20.98
2023-04-23T05:18:14.174Z,11.50
2023-04-23T05:20:41.657Z,9.43
2023-04-23T05:23:08.389Z,19.65
2023-04-23T05:25:35.784Z,11.32
2023-04-23T05:28:02.497Z,10.80
2023-04-23T05:30:29.279Z,11.32
2023-04-23T05:32:56.121Z,13.30
2023-04-23T05:35:22.863Z,9.20
2023-04-23T05:37:49.542Z,7.88
2023-04-23T05:40:16.201Z,7.63
2023-04-23T05:42:42.939Z,9.80
2023-04-23T05:45:10.010Z,12.32
2023-04-23T05:47:36.898Z,11.45
2023-04-23T05:50:03.707Z,13.95
2023-04-23T05:52:35.721Z,12.80
2023-04-23T05:55:02.497Z,10.85
2023-04-23T05:57:29.170Z,12.52
2023-04-23T05:59:55.809Z,13.88
2023-04-23T06:02:24.539Z,14.77
2023-04-23T06:04:52.157Z,11.35
2023-04-23T06:07:19.294Z,10.80
2023-04-23T06:09:45.892Z,10.35
2023-04-23T06:12:12.558Z,9.90
2023-04-23T06:14:39.573Z,9.27
2023-04-23T06:17:06.512Z,7.88
2023-04-23T06:19:33.156Z,7.50
2023-04-23T06:21:59.900Z,8.45
2023-04-23T06:24:26.548Z,9.68
2023-04-23T06:26:53.211Z,6.97
2023-04-23T06:29:19.804Z,7.10
2023-04-23T06:31:46.545Z,7.90
2023-04-23T06:34:13.211Z,12.40
2023-04-23T06:36:40.132Z,9.77
2023-04-23T06:39:06.950Z,7.43
2023-04-23T06:41:33.531Z,6.40
2023-04-23T06:44:00.604Z,7.68
2023-04-23T06:46:27.251Z,7.35
2023-04-23T06:48:53.950Z,7.28
2023-04-23T06:51:20.618Z,7.22
2023-04-23T06:53:47.396Z,7.32
2023-04-23T06:56:14.096Z,7.40
2023-04-23T06:58:41.245Z,7.00
2023-04-23T07:01:08.120Z,6.05
2023-04-23T07:03:36.467Z,6.03
2023-04-23T07:06:03.376Z,6.28
2023-04-23T07:08:30.119Z,5.95
2023-04-23T07:10:56.823Z,5.55
2023-04-23T07:13:24.176Z,5.82
2023-04-23T07:15:51.085Z,5.47
2023-04-23T07:18:17.945Z,5.32
2023-04-23T07:20:44.600Z,5.05
2023-04-23T07:23:11.316Z,5.30
2023-04-23T07:25:38.099Z,5.47
2023-04-23T07:28:04.719Z,7.47
2023-04-23T07:30:31.452Z,5.20
2023-04-23T07:32:58.283Z,4.78
2023-04-23T07:35:25.064Z,5.43
2023-04-23T07:37:53.989Z,4.78
2023-04-23T07:40:22.378Z,5.40
2023-04-23T07:42:49.008Z,5.43
2023-04-23T07:45:15.825Z,5.38
2023-04-23T07:47:42.444Z,4.93
2023-04-23T07:50:09.836Z,4.75
2023-04-23T07:52:36.534Z,4.75
2023-04-23T07:55:03.233Z,7.75
2023-04-23T07:57:29.889Z,4.75
2023-04-23T07:59:56.465Z,4.55
2023-04-23T08:02:26.253Z,4.95
2023-04-23T08:04:53.585Z,4.28
2023-04-23T08:07:20.658Z,4.80
2023-04-23T08:09:47.746Z,4.80
2023-04-23T08:12:17.218Z,4.82
2023-04-23T08:14:44.546Z,3.40
2023-04-23T08:17:11.245Z,3.67
2023-04-23T08:19:37.908Z,3.35
2023-04-23T08:22:04.615Z,4.68
2023-04-23T08:24:31.511Z,3.58
2023-04-23T08:26:58.206Z,3.33
2023-04-23T08:29:25.042Z,3.67
2023-04-23T08:31:51.656Z,4.72
2023-04-23T08:34:18.313Z,5.00
2023-04-23T08:36:46.444Z,3.85
2023-04-23T08:39:13.130Z,3.80
2023-04-23T08:41:43.258Z,3.38
2023-04-23T08:44:21.895Z,3.40
2023-04-23T08:46:49.347Z,3.08
2023-04-23T08:49:16.808Z,3.50
2023-04-23T08:51:50.921Z,5.97
2023-04-23T08:54:21.836Z,3.95
2023-04-23T08:56:48.486Z,3.70
2023-04-23T08:59:15.405Z,5.25
2023-04-23T09:01:42.035Z,3.20
2023-04-23T09:04:09.122Z,4.00
2023-04-23T09:06:36.551Z,3.50
2023-04-23T09:09:03.274Z,3.38
2023-04-23T09:11:29.980Z,4.00
2023-04-23T09:13:56.713Z,4.15
2023-04-23T09:16:23.444Z,3.70
2023-04-23T09:18:51.567Z,3.13
2023-04-23T09:21:18.335Z,3.08
2023-04-23T09:23:45.034Z,3.65
2023-04-23T09:26:19.286Z,3.45
2023-04-23T09:31:14.555Z,3.00
2023-04-23T09:33:41.150Z,3.25
2023-04-23T09:36:14.114Z,3.83
2023-04-23T09:38:43.731Z,3.50
2023-04-23T09:41:28.228Z,3.50
2023-04-23T09:43:55.451Z,3.28
2023-04-23T09:46:42.225Z,3.53
2023-04-23T09:49:10.465Z,4.53
2023-04-23T09:51:41.615Z,4.18
2023-04-23T09:54:15.605Z,4.00
2023-04-23T09:56:42.876Z,4.90
2023-04-23T09:59:46.258Z,3.88
2023-04-23T10:02:10.852Z,3.70
2023-04-23T10:04:38.471Z,4.60
2023-04-23T10:07:18.828Z,4.88
2023-04-23T10:09:46.752Z,3.97
2023-04-23T10:12:28.925Z,3.83
2023-04-23T10:15:00.279Z,3.63
2023-04-23T10:17:27.016Z,3.72
2023-04-23T10:19:53.633Z,4.57
2023-04-23T10:22:20.810Z,3.13
2023-04-23T10:24:49.533Z,3.80
2023-04-23T10:27:28.551Z,3.67
2023-04-23T10:29:59.825Z,3.83
2023-04-23T10:32:26.563Z,3.80
2023-04-23T10:34:53.452Z,3.78
2023-04-23T10:37:20.370Z,4.00
2023-04-23T10:39:50.354Z,3.78
2023-04-23T10:42:17.130Z,3.65
2023-04-23T10:47:15.022Z,3.80
2023-04-23T10:49:42.021Z,3.40
2023-04-23T10:52:20.068Z,3.88
2023-04-23T10:54:57.938Z,3.92
2023-04-23T10:57:24.635Z,5.90
2023-04-23T10:59:52.507Z,8.90
2023-04-23T11:02:19.325Z,6.18
2023-04-23T11:04:47.124Z,5.22
2023-04-23T11:07:14.017Z,3.85
2023-04-23T11:09:45.940Z,5.22
2023-04-23T11:12:14.032Z,4.30
2023-04-23T11:14:47.355Z,3.70
2023-04-23T11:17:18.522Z,3.50
2023-04-23T11:20:03.854Z,3.35
2023-04-23T11:22:37.499Z,3.45
2023-04-23T11:25:05.440Z,4.00
2023-04-23T11:27:32.615Z,4.93
2023-04-23T11:30:00.050Z,3.70
2023-04-23T11:32:27.930Z,2.63
2023-04-23T11:34:54.684Z,2.00
2023-04-23T11:37:21.386Z,2.03
2023-04-23T11:39:49.303Z,2.75
2023-04-23T11:42:16.617Z,2.20
2023-04-23T11:44:46.464Z,2.60
2023-04-23T11:47:14.204Z,2.45
2023-04-23T11:49:42.933Z,2.90
2023-04-23T11:52:10.386Z,2.70
2023-04-23T11:54:37.053Z,2.40
2023-04-23T11:57:05.048Z,3.40
2023-04-23T11:59:31.648Z,2.90
2023-04-23T12:01:59.105Z,2.75
2023-04-23T12:04:29.810Z,2.67
2023-04-23T12:06:57.839Z,2.65
2023-04-23T12:09:26.979Z,3.22
2023-04-23T12:11:53.703Z,2.72
2023-04-23T12:14:26.960Z,2.55
2023-04-23T12:16:53.689Z,2.30
2023-04-23T12:19:22.036Z,2.28
2023-04-23T12:21:49.795Z,2.60
2023-04-23T12:24:16.542Z,2.40
2023-04-23T12:26:46.359Z,2.75
2023-04-23T12:29:13.507Z,2.72
2023-04-23T12:31:40.426Z,2.08
2023-04-23T12:34:08.431Z,2.30
2023-04-23T12:36:38.557Z,2.38
2023-04-23T12:39:36.137Z,9.05
2023-04-23T12:42:05.156Z,2.95
2023-04-23T12:44:33.535Z,2.40
2023-04-23T12:47:03.522Z,4.15
2023-04-23T12:49:30.401Z,2.58
2023-04-23T12:52:02.803Z,2.50
2023-04-23T12:54:33.768Z,2.60
2023-04-23T12:57:02.803Z,2.53
2023-04-23T12:59:29.980Z,2.05
2023-04-23T13:01:56.804Z,1.98
2023-04-23T13:04:23.485Z,2.00
2023-04-23T13:06:51.398Z,2.17
2023-04-23T13:09:18.156Z,2.10
2023-04-23T13:11:46.228Z,2.20
2023-04-23T13:14:12.828Z,2.10
2023-04-23T13:16:39.553Z,2.30
2023-04-23T13:19:06.274Z,2.53
2023-04-23T13:21:32.834Z,2.00
2023-04-23T13:23:59.522Z,2.28
2023-04-23T13:26:27.065Z,2.47
2023-04-23T13:28:53.700Z,2.22
2023-04-23T13:31:21.271Z,2.15
2023-04-23T13:33:47.912Z,3.10
2023-04-23T13:36:14.607Z,3.13
2023-04-23T13:38:41.607Z,4.43
2023-04-23T13:41:08.288Z,3.55
2023-04-23T13:43:34.944Z,4.68
2023-04-23T13:46:01.772Z,3.42
2023-04-23T13:48:31.560Z,3.30
2023-04-23T13:51:01.647Z,2.80
2023-04-23T13:53:28.327Z,2.80
2023-04-23T13:55:55.946Z,3.30
2023-04-23T13:58:23.348Z,2.60
2023-04-23T14:00:50.280Z,2.30
2023-04-23T14:03:17.302Z,2.42
2023-04-23T14:05:43.988Z,2.25
2023-04-23T14:08:10.994Z,2.40
2023-04-23T14:10:39.031Z,2.17
2023-04-23T14:13:05.839Z,2.60
2023-04-23T14:15:32.453Z,2.40
2023-04-23T14:17:59.885Z,2.08
2023-04-23T14:20:26.637Z,2.50
2023-04-23T14:22:58.520Z,2.50
2023-04-23T14:25:46.633Z,2.40
2023-04-23T14:28:39.897Z,2.05
2023-04-23T14:31:07.098Z,2.35
2023-04-23T14:33:33.790Z,2.17
2023-04-23T14:36:00.476Z,2.20
2023-04-23T14:38:27.151Z,2.97
2023-04-23T14:40:53.862Z,2.25
2023-04-23T14:43:20.541Z,2.50
2023-04-23T14:45:47.314Z,2.72
2023-04-23T14:48:14.151Z,2.40
2023-04-23T14:50:40.822Z,2.53
2023-04-23T14:53:10.060Z,2.40
2023-04-23T14:55:36.782Z,2.72
2023-04-23T14:58:03.501Z,2.83
2023-04-23T15:00:30.275Z,2.70
2023-04-23T15:02:57.135Z,2.97
2023-04-23T15:05:24.303Z,3.38
2023-04-23T15:07:51.858Z,2.92
2023-04-23T15:10:20.394Z,3.33
2023-04-23T15:13:35.596Z,2.90
2023-04-23T15:16:03.069Z,3.00
2023-04-23T15:18:29.803Z,3.40
2023-04-23T15:20:56.458Z,3.25
2023-04-23T15:23:24.306Z,3.67
2023-04-23T15:25:51.027Z,4.00
2023-04-23T15:28:17.859Z,3.50
2023-04-23T15:30:47.725Z,4.20
2023-04-23T15:33:14.473Z,5.40
2023-04-23T15:35:41.133Z,4.00
2023-04-23T15:38:07.768Z,5.68
2023-04-23T15:40:42.048Z,5.65
2023-04-23T15:45:39.546Z,5.60
2023-04-23T15:48:06.283Z,5.45
2023-04-23T15:50:32.952Z,4.75
2023-04-23T15:53:01.483Z,4.28
2023-04-23T15:55:28.910Z,4.40
2023-04-23T15:57:55.784Z,4.55
2023-04-23T16:00:22.635Z,4.40
2023-04-23T16:02:49.456Z,5.57
2023-04-23T16:05:16.534Z,7.15
2023-04-23T16:07:44.388Z,6.90
2023-04-23T16:10:11.302Z,7.78
2023-04-23T16:12:38.215Z,6.32
2023-04-23T16:15:05.339Z,5.80
2023-04-23T16:17:31.992Z,5.45
2023-04-23T16:19:58.748Z,6.75
2023-04-23T16:22:25.582Z,6.65
2023-04-23T16:24:52.184Z,6.03
2023-04-23T16:27:18.879Z,5.65
2023-04-23T16:29:45.496Z,7.57
2023-04-23T16:32:12.252Z,8.20
2023-04-23T16:34:38.917Z,15.55
2023-04-23T16:37:05.933Z,7.78
2023-04-23T16:39:33.241Z,9.10
2023-04-23T16:42:00.010Z,8.02
2023-04-23T16:44:26.627Z,11.52
2023-04-23T16:46:53.268Z,16.10
2023-04-23T16:49:20.032Z,9.00
2023-04-23T16:51:46.635Z,6.15
2023-04-23T16:54:13.318Z,5.43
2023-04-23T16:56:39.960Z,5.05
2023-04-23T16:59:06.714Z,4.32
2023-04-23T17:01:33.354Z,5.03
2023-04-23T17:04:00.199Z,5.05
2023-04-23T17:06:28.143Z,5.97
2023-04-23T17:08:55.128Z,10.32
2023-04-23T17:11:23.189Z,6.40
2023-04-23T17:13:50.313Z,6.95
2023-04-23T17:16:17.077Z,6.50
2023-04-23T17:18:43.839Z,7.10
2023-04-23T17:21:10.807Z,6.93
2023-04-23T17:23:37.399Z,7.30
2023-04-23T17:26:04.127Z,7.93
2023-04-23T17:28:30.790Z,5.88
2023-04-23T17:30:57.489Z,6.45
2023-04-23T17:33:24.443Z,7.20
2023-04-23T17:35:52.257Z,15.77
2023-04-23T17:38:20.761Z,19.95
2023-04-23T17:40:48.459Z,21.92
2023-04-23T17:43:15.597Z,13.15
2023-04-23T17:45:42.402Z,11.45
2023-04-23T17:48:09.436Z,14.13
2023-04-23T17:50:36.488Z,13.68
2023-04-23T17:53:03.918Z,7.95
2023-04-23T17:55:32.868Z,10.15
2023-04-23T17:58:06.632Z,10.43
2023-04-23T18:00:36.946Z,11.80
2023-04-23T18:03:04.098Z,10.50
2023-04-23T18:05:31.278Z,21.80
2023-04-23T18:07:57.997Z,20.00
2023-04-23T18:10:24.755Z,15.82
2023-04-23T18:12:51.519Z,19.95
2023-04-23T18:15:18.278Z,17.00
2023-04-23T18:17:45.528Z,16.50
2023-04-23T18:20:13.452Z,19.23
2023-04-23T18:22:41.297Z,13.13
2023-04-23T18:25:10.151Z,12.82
2023-04-23T18:27:36.770Z,12.80
2023-04-23T18:30:05.566Z,9.82
2023-04-23T18:32:37.479Z,9.77
2023-04-23T18:35:08.097Z,7.88
2023-04-23T18:38:04.765Z,7.75
2023-04-23T18:40:31.416Z,11.25
2023-04-23T18:42:58.175Z,9.40
2023-04-23T18:45:24.931Z,10.68
2023-04-23T18:47:56.465Z,11.40
2023-04-23T18:50:30.371Z,8.45
2023-04-23T18:52:57.142Z,12.70
2023-04-23T18:55:23.827Z,8.07
2023-04-23T18:57:50.393Z,8.65
2023-04-23T19:00:17.241Z,13.20
2023-04-23T19:02:43.963Z,9.63
2023-04-23T19:05:11.385Z,10.52
2023-04-23T19:07:40.501Z,11.82
2023-04-23T19:10:07.878Z,12.40
2023-04-23T19:12:34.556Z,10.45
2023-04-23T19:15:01.244Z,9.77
2023-04-23T19:17:28.091Z,9.32
2023-04-23T19:19:54.940Z,9.65
2023-04-23T19:22:25.024Z,11.13
2023-04-23T19:24:51.729Z,8.98
2023-04-23T19:27:18.322Z,8.45
2023-04-23T19:29:46.588Z,8.77
2023-04-23T19:32:13.277Z,9.73
2023-04-23T19:34:40.055Z,10.30
2023-04-23T19:37:07.865Z,8.27
2023-04-23T19:39:34.492Z,7.70
2023-04-23T19:42:02.643Z,8.65
2023-04-23T19:44:29.570Z,7.97
2023-04-23T19:46:56.702Z,7.13
2023-04-23T19:49:23.510Z,9.65
2023-04-23T19:51:52.293Z,8.95
2023-04-23T19:54:18.944Z,8.80
2023-04-23T19:56:45.674Z,8.95
2023-04-23T19:59:15.350Z,8.35
2023-04-23T20:01:41.998Z,7.70
2023-04-23T20:04:09.402Z,7.60
2023-04-23T20:06:36.633Z,9.95
2023-04-23T20:09:17.946Z,9.15
2023-04-23T20:11:45.857Z,7.15
2023-04-23T20:14:13.039Z,6.13
2023-04-23T20:16:40.580Z,6.93
2023-04-23T20:19:10.952Z,6.88
2023-04-23T20:21:38.990Z,6.95
2023-04-23T20:24:07.367Z,6.35
2023-04-23T20:26:35.019Z,5.47
2023-04-23T20:29:01.770Z,10.23
2023-04-23T20:31:28.555Z,15.98
2023-04-23T20:33:55.813Z,16.77
2023-04-23T20:36:23.418Z,17.60
2023-04-23T20:38:50.186Z,23.77
2023-04-23T20:41:17.184Z,12.30
2023-04-23T20:43:43.880Z,11.02
2023-04-23T20:46:10.584Z,11.27
2023-04-23T20:48:37.445Z,9.15
2023-04-23T20:51:04.218Z,9.00
2023-04-23T20:53:30.926Z,6.60
2023-04-23T20:55:57.802Z,8.30
2023-04-23T20:58:24.506Z,7.78
2023-04-23T21:00:51.411Z,6.90
2023-04-23T21:03:18.905Z,7.93
2023-04-23T21:05:45.795Z,6.57
2023-04-23T21:08:13.744Z,6.20
2023-04-23T21:10:41.148Z,6.00
2023-04-23T21:13:08.515Z,6.30
2023-04-23T21:15:35.601Z,9.65
2023-04-23T21:18:02.865Z,7.20
2023-04-23T21:20:29.864Z,5.95
2023-04-23T21:22:56.521Z,6.72
2023-04-23T21:25:23.166Z,7.88
2023-04-23T21:27:50.491Z,13.90
2023-04-23T21:30:43.100Z,7.53
2023-04-23T21:33:09.833Z,7.93
2023-04-23T21:35:36.554Z,6.70
2023-04-23T21:38:03.240Z,7.82
2023-04-23T21:40:29.979Z,7.47
2023-04-23T21:42:56.728Z,7.13
2023-04-23T21:45:23.706Z,7.75
2023-04-23T21:47:51.096Z,8.20
2023-04-23T21:50:17.728Z,8.10
2023-04-23T21:52:44.594Z,7.38
2023-04-23T21:55:12.612Z,7.65
2023-04-23T21:57:39.217Z,8.00
2023-04-23T22:00:06.947Z,8.70
2023-04-23T22:02:33.928Z,8.90
2023-04-23T22:05:00.810Z,10.85
2023-04-23T22:07:29.463Z,17.85
2023-04-23T22:09:57.231Z,19.77
2023-04-23T22:12:23.958Z,18.48
2023-04-23T22:14:50.732Z,13.10
2023-04-23T22:17:18.848Z,12.05
2023-04-23T22:19:45.961Z,12.73
2023-04-23T22:22:12.684Z,13.02
2023-04-23T22:24:39.401Z,12.25
2023-04-23T22:27:08.709Z,10.60
2023-04-23T22:29:35.328Z,10.20
2023-04-23T22:32:02.100Z,10.05
2023-04-23T22:34:28.866Z,10.43
2023-04-23T22:36:55.682Z,10.48
2023-04-23T22:39:22.460Z,9.75
2023-04-23T22:41:49.104Z,9.15
2023-04-23T22:44:15.750Z,10.15
2023-04-23T22:46:42.883Z,10.88
2023-04-23T22:49:11.240Z,10.82
2023-04-23T22:51:39.163Z,9.20
2023-04-23T22:54:05.992Z,10.57
2023-04-23T22:56:32.719Z,11.52
2023-04-23T22:58:59.434Z,11.23
2023-04-23T23:01:26.433Z,11.90
2023-04-23T23:03:53.210Z,12.55
2023-04-23T23:06:19.926Z,12.68
2023-04-23T23:08:46.611Z,13.23
2023-04-23T23:11:13.291Z,12.07
2023-04-23T23:13:40.657Z,12.52
2023-04-23T23:16:07.305Z,10.55
2023-04-23T23:18:34.052Z,10.93
2023-04-23T23:21:01.137Z,10.35
2023-04-23T23:23:27.808Z,11.32
2023-04-23T23:25:55.150Z,9.93
2023-04-23T23:28:21.854Z,8.75
2023-04-23T23:30:49.195Z,7.95
2023-04-23T23:33:16.550Z,9.65
2023-04-23T23:35:43.766Z,9.68
2023-04-23T23:38:10.906Z,13.15
2023-04-23T23:40:37.829Z,11.65
2023-04-23T23:43:04.493Z,11.00
2023-04-23T23:45:31.776Z,11.25
2023-04-23T23:47:58.386Z,11.30
2023-04-23T23:50:26.160Z,10.88
2023-04-23T23:52:53.734Z,10.85
2023-04-23T23:55:20.441Z,12.75
2023-04-23T23:57:47.068Z,11.63
